sensor_id;sensor_type;location;lat;lon;timestamp;P1;durP1;ratioP1;P2;durP2;ratioP2
63444;SDS011;49573;47.682;9.170;2023-01-06T00:01:54;5.97;;;4.40;;
63444;SDS011;49573;47.682;9.170;2023-01-06T00:04:40;8.40;;;4.47;;
63444;SDS011;49573;47.682;9.170;2023-01-06T00:07:26;7.00;;;5.03;;
63444;SDS011;49573;47.682;9.170;2023-01-06T00:10:13;6.88;;;4.47;;
63444;SDS011;49573;47.682;9.170;2023-01-06T00:13:01;6.82;;;4.57;;
63444;SDS011;49573;47.682;9.170;2023-01-06T00:15:47;6.60;;;4.70;;
63444;SDS011;49573;47.682;9.170;2023-01-06T00:18:33;6.75;;;5.07;;
63444;SDS011;49573;47.682;9.170;2023-01-06T00:21:20;8.32;;;4.88;;
63444;SDS011;49573;47.682;9.170;2023-01-06T00:24:07;7.07;;;5.45;;
63444;SDS011;49573;47.682;9.170;2023-01-06T00:26:53;6.82;;;5.05;;
63444;SDS011;49573;47.682;9.170;2023-01-06T00:29:41;6.90;;;5.20;;
63444;SDS011;49573;47.682;9.170;2023-01-06T00:32:27;8.27;;;5.63;;
63444;SDS011;49573;47.682;9.170;2023-01-06T00:35:14;9.13;;;6.32;;
63444;SDS011;49573;47.682;9.170;2023-01-06T00:38:00;9.48;;;6.25;;
63444;SDS011;49573;47.682;9.170;2023-01-06T00:40:46;9.27;;;6.25;;
63444;SDS011;49573;47.682;9.170;2023-01-06T00:43:33;8.82;;;6.00;;
63444;SDS011;49573;47.682;9.170;2023-01-06T00:46:21;7.15;;;5.13;;
63444;SDS011;49573;47.682;9.170;2023-01-06T00:49:07;8.40;;;5.97;;
63444;SDS011;49573;47.682;9.170;2023-01-06T00:51:54;9.05;;;5.90;;
63444;SDS011;49573;47.682;9.170;2023-01-06T00:54:40;9.52;;;6.65;;
63444;SDS011;49573;47.682;9.170;2023-01-06T00:57:27;8.43;;;5.90;;
63444;SDS011;49573;47.682;9.170;2023-01-06T01:00:13;10.88;;;7.07;;
63444;SDS011;49573;47.682;9.170;2023-01-06T01:03:01;8.07;;;5.97;;
63444;SDS011;49573;47.682;9.170;2023-01-06T01:05:48;11.50;;;5.90;;
63444;SDS011;49573;47.682;9.170;2023-01-06T01:08:34;9.30;;;5.95;;
63444;SDS011;49573;47.682;9.170;2023-01-06T01:11:21;10.50;;;6.40;;
63444;SDS011;49573;47.682;9.170;2023-01-06T01:14:26;8.73;;;5.97;;
63444;SDS011;49573;47.682;9.170;2023-01-06T01:17:13;9.43;;;6.07;;
63444;SDS011;49573;47.682;9.170;2023-01-06T01:22:47;9.23;;;6.35;;
63444;SDS011;49573;47.682;9.170;2023-01-06T01:25:34;9.05;;;5.97;;
63444;SDS011;49573;47.682;9.170;2023-01-06T01:28:20;7.80;;;5.60;;
63444;SDS011;49573;47.682;9.170;2023-01-06T01:31:06;8.18;;;6.15;;
63444;SDS011;49573;47.682;9.170;2023-01-06T01:33:53;9.95;;;6.25;;
63444;SDS011;49573;47.682;9.170;2023-01-06T01:36:40;9.05;;;6.00;;
63444;SDS011;49573;47.682;9.170;2023-01-06T01:42:15;10.07;;;6.72;;
63444;SDS011;49573;47.682;9.170;2023-01-06T01:45:03;8.85;;;6.13;;
63444;SDS011;49573;47.682;9.170;2023-01-06T01:47:50;8.07;;;6.13;;
63444;SDS011;49573;47.682;9.170;2023-01-06T01:50:38;9.35;;;5.90;;
63444;SDS011;49573;47.682;9.170;2023-01-06T01:53:28;9.10;;;6.20;;
63444;SDS011;49573;47.682;9.170;2023-01-06T01:56:16;9.55;;;6.63;;
63444;SDS011;49573;47.682;9.170;2023-01-06T01:59:06;7.93;;;5.65;;
63444;SDS011;49573;47.682;9.170;2023-01-06T02:01:52;8.73;;;5.63;;
63444;SDS011;49573;47.682;9.170;2023-01-06T02:04:40;10.15;;;6.43;;
63444;SDS011;49573;47.682;9.170;2023-01-06T02:07:27;9.07;;;5.95;;
63444;SDS011;49573;47.682;9.170;2023-01-06T02:10:14;8.40;;;6.22;;
63444;SDS011;49573;47.682;9.170;2023-01-06T02:13:01;9.70;;;6.15;;
63444;SDS011;49573;47.682;9.170;2023-01-06T02:15:49;10.65;;;6.80;;
63444;SDS011;49573;47.682;9.170;2023-01-06T02:18:41;8.63;;;5.78;;
63444;SDS011;49573;47.682;9.170;2023-01-06T02:21:34;9.95;;;6.15;;
63444;SDS011;49573;47.682;9.170;2023-01-06T02:24:51;11.40;;;6.57;;
63444;SDS011;49573;47.682;9.170;2023-01-06T02:27:48;8.85;;;5.70;;
63444;SDS011;49573;47.682;9.170;2023-01-06T02:30:44;7.85;;;5.55;;
63444;SDS011;49573;47.682;9.170;2023-01-06T02:33:36;9.98;;;5.97;;
63444;SDS011;49573;47.682;9.170;2023-01-06T02:36:28;8.40;;;5.50;;
63444;SDS011;49573;47.682;9.170;2023-01-06T02:39:21;7.50;;;5.28;;
63444;SDS011;49573;47.682;9.170;2023-01-06T02:42:14;8.07;;;4.75;;
63444;SDS011;49573;47.682;9.170;2023-01-06T02:45:05;7.47;;;4.95;;
63444;SDS011;49573;47.682;9.170;2023-01-06T02:47:55;7.95;;;5.25;;
63444;SDS011;49573;47.682;9.170;2023-01-06T02:50:47;7.65;;;5.05;;
63444;SDS011;49573;47.682;9.170;2023-01-06T02:53:38;7.53;;;4.97;;
63444;SDS011;49573;47.682;9.170;2023-01-06T02:56:27;8.45;;;5.07;;
63444;SDS011;49573;47.682;9.170;2023-01-06T02:59:18;6.70;;;4.63;;
63444;SDS011;49573;47.682;9.170;2023-01-06T03:02:05;6.60;;;4.80;;
63444;SDS011;49573;47.682;9.170;2023-01-06T03:04:53;8.52;;;4.82;;
63444;SDS011;49573;47.682;9.170;2023-01-06T03:07:43;9.48;;;4.80;;
63444;SDS011;49573;47.682;9.170;2023-01-06T03:10:31;8.60;;;5.97;;
63444;SDS011;49573;47.682;9.170;2023-01-06T03:16:04;9.68;;;5.68;;
63444;SDS011;49573;47.682;9.170;2023-01-06T03:18:51;10.10;;;5.95;;
63444;SDS011;49573;47.682;9.170;2023-01-06T03:21:40;10.20;;;6.63;;
63444;SDS011;49573;47.682;9.170;2023-01-06T03:24:29;9.07;;;6.32;;
63444;SDS011;49573;47.682;9.170;2023-01-06T03:27:15;8.25;;;5.95;;
63444;SDS011;49573;47.682;9.170;2023-01-06T03:30:04;7.32;;;5.45;;
63444;SDS011;49573;47.682;9.170;2023-01-06T03:32:55;9.30;;;5.22;;
63444;SDS011;49573;47.682;9.170;2023-01-06T03:35:46;8.10;;;5.63;;
63444;SDS011;49573;47.682;9.170;2023-01-06T03:38:41;7.95;;;5.50;;
63444;SDS011;49573;47.682;9.170;2023-01-06T03:41:32;9.50;;;5.93;;
63444;SDS011;49573;47.682;9.170;2023-01-06T03:44:40;9.30;;;6.13;;
63444;SDS011;49573;47.682;9.170;2023-01-06T03:47:38;9.93;;;6.22;;
63444;SDS011;49573;47.682;9.170;2023-01-06T03:50:27;9.48;;;5.72;;
63444;SDS011;49573;47.682;9.170;2023-01-06T03:53:18;9.68;;;5.90;;
63444;SDS011;49573;47.682;9.170;2023-01-06T03:56:11;10.05;;;6.50;;
63444;SDS011;49573;47.682;9.170;2023-01-06T03:58:59;10.55;;;6.50;;
63444;SDS011;49573;47.682;9.170;2023-01-06T04:01:47;15.02;;;7.57;;
63444;SDS011;49573;47.682;9.170;2023-01-06T04:04:35;14.95;;;7.65;;
63444;SDS011;49573;47.682;9.170;2023-01-06T04:07:21;14.80;;;7.18;;
63444;SDS011;49573;47.682;9.170;2023-01-06T04:10:08;11.15;;;7.28;;
63444;SDS011;49573;47.682;9.170;2023-01-06T04:12:54;13.05;;;7.25;;
63444;SDS011;49573;47.682;9.170;2023-01-06T04:15:42;14.05;;;7.32;;
63444;SDS011;49573;47.682;9.170;2023-01-06T04:18:28;17.85;;;8.85;;
63444;SDS011;49573;47.682;9.170;2023-01-06T04:21:15;15.43;;;9.15;;
63444;SDS011;49573;47.682;9.170;2023-01-06T04:24:01;15.85;;;8.93;;
63444;SDS011;49573;47.682;9.170;2023-01-06T04:26:48;18.30;;;8.52;;
63444;SDS011;49573;47.682;9.170;2023-01-06T04:29:34;16.33;;;8.50;;
63444;SDS011;49573;47.682;9.170;2023-01-06T04:32:22;15.00;;;8.30;;
63444;SDS011;49573;47.682;9.170;2023-01-06T04:35:09;22.27;;;9.25;;
63444;SDS011;49573;47.682;9.170;2023-01-06T04:37:55;22.73;;;9.13;;
63444;SDS011;49573;47.682;9.170;2023-01-06T04:40:41;17.45;;;8.95;;
63444;SDS011;49573;47.682;9.170;2023-01-06T04:43:28;16.75;;;8.15;;
63444;SDS011;49573;47.682;9.170;2023-01-06T04:46:14;16.15;;;7.80;;
63444;SDS011;49573;47.682;9.170;2023-01-06T04:49:02;17.65;;;8.05;;
63444;SDS011;49573;47.682;9.170;2023-01-06T04:51:48;18.10;;;8.23;;
63444;SDS011;49573;47.682;9.170;2023-01-06T04:54:35;17.98;;;8.93;;
63444;SDS011;49573;47.682;9.170;2023-01-06T04:57:21;27.45;;;8.50;;
63444;SDS011;49573;47.682;9.170;2023-01-06T05:00:08;39.22;;;10.57;;
63444;SDS011;49573;47.682;9.170;2023-01-06T05:02:55;31.13;;;10.43;;
63444;SDS011;49573;47.682;9.170;2023-01-06T05:05:42;30.98;;;9.55;;
63444;SDS011;49573;47.682;9.170;2023-01-06T05:08:29;34.40;;;10.48;;
63444;SDS011;49573;47.682;9.170;2023-01-06T05:11:16;31.02;;;10.70;;
63444;SDS011;49573;47.682;9.170;2023-01-06T05:14:03;50.35;;;11.15;;
63444;SDS011;49573;47.682;9.170;2023-01-06T05:16:50;32.00;;;11.18;;
63444;SDS011;49573;47.682;9.170;2023-01-06T05:19:36;36.55;;;12.15;;
63444;SDS011;49573;47.682;9.170;2023-01-06T05:22:24;28.73;;;11.63;;
63444;SDS011;49573;47.682;9.170;2023-01-06T05:25:10;33.33;;;11.77;;
63444;SDS011;49573;47.682;9.170;2023-01-06T05:27:57;99.30;;;14.55;;
63444;SDS011;49573;47.682;9.170;2023-01-06T05:30:43;41.03;;;13.00;;
63444;SDS011;49573;47.682;9.170;2023-01-06T05:33:30;30.70;;;12.82;;
63444;SDS011;49573;47.682;9.170;2023-01-06T05:36:17;34.90;;;12.60;;
63444;SDS011;49573;47.682;9.170;2023-01-06T05:39:04;31.13;;;11.77;;
63444;SDS011;49573;47.682;9.170;2023-01-06T05:41:51;28.58;;;12.23;;
63444;SDS011;49573;47.682;9.170;2023-01-06T05:44:37;21.75;;;11.70;;
63444;SDS011;49573;47.682;9.170;2023-01-06T05:47:24;33.08;;;12.50;;
63444;SDS011;49573;47.682;9.170;2023-01-06T05:50:10;44.65;;;11.85;;
63444;SDS011;49573;47.682;9.170;2023-01-06T05:52:56;19.33;;;11.10;;
63444;SDS011;49573;47.682;9.170;2023-01-06T05:55:44;18.75;;;10.60;;
63444;SDS011;49573;47.682;9.170;2023-01-06T05:58:31;21.75;;;9.95;;
63444;SDS011;49573;47.682;9.170;2023-01-06T06:01:18;19.17;;;10.38;;
63444;SDS011;49573;47.682;9.170;2023-01-06T06:04:05;16.23;;;9.68;;
63444;SDS011;49573;47.682;9.170;2023-01-06T06:06:51;16.63;;;8.57;;
63444;SDS011;49573;47.682;9.170;2023-01-06T06:09:37;17.92;;;9.68;;
63444;SDS011;49573;47.682;9.170;2023-01-06T06:12:26;17.27;;;9.68;;
63444;SDS011;49573;47.682;9.170;2023-01-06T06:15:12;18.15;;;9.70;;
63444;SDS011;49573;47.682;9.170;2023-01-06T06:17:59;15.18;;;9.38;;
63444;SDS011;49573;47.682;9.170;2023-01-06T06:20:46;18.08;;;9.15;;
63444;SDS011;49573;47.682;9.170;2023-01-06T06:23:32;14.07;;;8.60;;
63444;SDS011;49573;47.682;9.170;2023-01-06T06:26:19;19.45;;;9.48;;
63444;SDS011;49573;47.682;9.170;2023-01-06T06:29:07;14.85;;;9.25;;
63444;SDS011;49573;47.682;9.170;2023-01-06T06:31:53;15.60;;;9.02;;
63444;SDS011;49573;47.682;9.170;2023-01-06T06:34:39;15.10;;;8.25;;
63444;SDS011;49573;47.682;9.170;2023-01-06T06:37:26;15.85;;;8.63;;
63444;SDS011;49573;47.682;9.170;2023-01-06T06:40:12;18.83;;;9.70;;
63444;SDS011;49573;47.682;9.170;2023-01-06T06:42:58;14.00;;;7.90;;
63444;SDS011;49573;47.682;9.170;2023-01-06T06:45:46;15.63;;;7.93;;
63444;SDS011;49573;47.682;9.170;2023-01-06T06:48:33;17.25;;;9.00;;
63444;SDS011;49573;47.682;9.170;2023-01-06T06:51:20;14.32;;;9.05;;
63444;SDS011;49573;47.682;9.170;2023-01-06T06:54:06;18.10;;;9.43;;
63444;SDS011;49573;47.682;9.170;2023-01-06T06:56:53;16.60;;;9.32;;
63444;SDS011;49573;47.682;9.170;2023-01-06T06:59:39;14.73;;;8.45;;
63444;SDS011;49573;47.682;9.170;2023-01-06T07:02:27;15.07;;;8.25;;
63444;SDS011;49573;47.682;9.170;2023-01-06T07:05:13;16.55;;;8.68;;
63444;SDS011;49573;47.682;9.170;2023-01-06T07:08:00;12.77;;;7.38;;
63444;SDS011;49573;47.682;9.170;2023-01-06T07:10:46;13.20;;;8.02;;
63444;SDS011;49573;47.682;9.170;2023-01-06T07:13:32;12.60;;;8.02;;
63444;SDS011;49573;47.682;9.170;2023-01-06T07:16:19;13.68;;;8.52;;
63444;SDS011;49573;47.682;9.170;2023-01-06T07:19:08;12.80;;;8.25;;
63444;SDS011;49573;47.682;9.170;2023-01-06T07:21:55;16.25;;;8.25;;
63444;SDS011;49573;47.682;9.170;2023-01-06T07:24:41;15.57;;;8.52;;
63444;SDS011;49573;47.682;9.170;2023-01-06T07:27:28;14.57;;;8.82;;
63444;SDS011;49573;47.682;9.170;2023-01-06T07:30:14;16.73;;;8.90;;
63444;SDS011;49573;47.682;9.170;2023-01-06T07:33:01;15.18;;;8.48;;
63444;SDS011;49573;47.682;9.170;2023-01-06T07:35:52;12.80;;;7.70;;
63444;SDS011;49573;47.682;9.170;2023-01-06T07:38:38;12.15;;;8.02;;
63444;SDS011;49573;47.682;9.170;2023-01-06T07:41:25;10.65;;;6.70;;
63444;SDS011;49573;47.682;9.170;2023-01-06T07:44:11;10.25;;;6.53;;
63444;SDS011;49573;47.682;9.170;2023-01-06T07:46:57;8.65;;;6.07;;
63444;SDS011;49573;47.682;9.170;2023-01-06T07:49:44;9.40;;;6.35;;
63444;SDS011;49573;47.682;9.170;2023-01-06T07:52:31;9.95;;;6.55;;
63444;SDS011;49573;47.682;9.170;2023-01-06T07:55:18;9.82;;;6.00;;
63444;SDS011;49573;47.682;9.170;2023-01-06T07:58:04;9.70;;;6.25;;
63444;SDS011;49573;47.682;9.170;2023-01-06T08:00:51;10.65;;;7.05;;
63444;SDS011;49573;47.682;9.170;2023-01-06T08:03:37;9.88;;;6.93;;
63444;SDS011;49573;47.682;9.170;2023-01-06T08:06:24;9.95;;;7.30;;
63444;SDS011;49573;47.682;9.170;2023-01-06T08:09:12;10.18;;;6.75;;
63444;SDS011;49573;47.682;9.170;2023-01-06T08:11:58;10.13;;;6.70;;
63444;SDS011;49573;47.682;9.170;2023-01-06T08:14:45;9.88;;;6.63;;
63444;SDS011;49573;47.682;9.170;2023-01-06T08:17:31;10.70;;;6.88;;
63444;SDS011;49573;47.682;9.170;2023-01-06T08:20:18;9.38;;;6.00;;
63444;SDS011;49573;47.682;9.170;2023-01-06T08:23:04;10.88;;;6.90;;
63444;SDS011;49573;47.682;9.170;2023-01-06T08:25:52;9.88;;;7.28;;
63444;SDS011;49573;47.682;9.170;2023-01-06T08:28:38;11.68;;;7.15;;
63444;SDS011;49573;47.682;9.170;2023-01-06T08:31:25;9.35;;;6.13;;
63444;SDS011;49573;47.682;9.170;2023-01-06T08:34:11;10.27;;;6.72;;
63444;SDS011;49573;47.682;9.170;2023-01-06T08:36:58;9.93;;;6.75;;
63444;SDS011;49573;47.682;9.170;2023-01-06T08:39:45;11.68;;;7.00;;
63444;SDS011;49573;47.682;9.170;2023-01-06T08:42:33;11.95;;;7.35;;
63444;SDS011;49573;47.682;9.170;2023-01-06T08:45:19;9.98;;;6.53;;
63444;SDS011;49573;47.682;9.170;2023-01-06T08:48:06;9.82;;;6.53;;
63444;SDS011;49573;47.682;9.170;2023-01-06T08:50:52;10.27;;;6.80;;
63444;SDS011;49573;47.682;9.170;2023-01-06T08:53:39;10.50;;;6.70;;
63444;SDS011;49573;47.682;9.170;2023-01-06T08:56:26;10.90;;;7.18;;
63444;SDS011;49573;47.682;9.170;2023-01-06T08:59:15;9.27;;;6.18;;
63444;SDS011;49573;47.682;9.170;2023-01-06T09:02:02;9.75;;;6.35;;
63444;SDS011;49573;47.682;9.170;2023-01-06T09:04:48;8.57;;;6.00;;
63444;SDS011;49573;47.682;9.170;2023-01-06T09:07:35;8.95;;;6.03;;
63444;SDS011;49573;47.682;9.170;2023-01-06T09:10:21;9.35;;;6.45;;
63444;SDS011;49573;47.682;9.170;2023-01-06T09:13:08;8.73;;;6.10;;
63444;SDS011;49573;47.682;9.170;2023-01-06T09:15:55;9.50;;;6.70;;
63444;SDS011;49573;47.682;9.170;2023-01-06T09:18:42;11.55;;;7.30;;
63444;SDS011;49573;47.682;9.170;2023-01-06T09:21:33;10.85;;;7.65;;
63444;SDS011;49573;47.682;9.170;2023-01-06T09:24:20;9.63;;;6.78;;
63444;SDS011;49573;47.682;9.170;2023-01-06T09:27:06;10.20;;;7.18;;
63444;SDS011;49573;47.682;9.170;2023-01-06T09:29:52;12.05;;;7.72;;
63444;SDS011;49573;47.682;9.170;2023-01-06T09:32:40;9.70;;;6.53;;
63444;SDS011;49573;47.682;9.170;2023-01-06T09:35:27;9.43;;;6.53;;
63444;SDS011;49573;47.682;9.170;2023-01-06T09:38:13;9.23;;;6.30;;
63444;SDS011;49573;47.682;9.170;2023-01-06T09:41:03;10.02;;;7.43;;
63444;SDS011;49573;47.682;9.170;2023-01-06T09:43:55;9.63;;;6.32;;
63444;SDS011;49573;47.682;9.170;2023-01-06T09:46:44;9.35;;;6.72;;
63444;SDS011;49573;47.682;9.170;2023-01-06T09:49:35;8.93;;;6.35;;
63444;SDS011;49573;47.682;9.170;2023-01-06T09:52:26;9.10;;;6.20;;
63444;SDS011;49573;47.682;9.170;2023-01-06T09:55:16;8.85;;;5.47;;
63444;SDS011;49573;47.682;9.170;2023-01-06T09:58:05;8.60;;;5.40;;
63444;SDS011;49573;47.682;9.170;2023-01-06T10:00:54;8.07;;;5.40;;
63444;SDS011;49573;47.682;9.170;2023-01-06T10:03:41;8.82;;;5.63;;
63444;SDS011;49573;47.682;9.170;2023-01-06T10:06:30;8.80;;;5.15;;
63444;SDS011;49573;47.682;9.170;2023-01-06T10:09:20;8.60;;;5.70;;
63444;SDS011;49573;47.682;9.170;2023-01-06T10:12:13;7.47;;;5.15;;
63444;SDS011;49573;47.682;9.170;2023-01-06T10:15:07;9.80;;;5.88;;
63444;SDS011;49573;47.682;9.170;2023-01-06T10:18:02;7.45;;;4.93;;
63444;SDS011;49573;47.682;9.170;2023-01-06T10:20:52;8.38;;;5.50;;
63444;SDS011;49573;47.682;9.170;2023-01-06T10:23:44;9.30;;;5.82;;
63444;SDS011;49573;47.682;9.170;2023-01-06T10:26:34;9.20;;;6.30;;
63444;SDS011;49573;47.682;9.170;2023-01-06T10:29:22;9.10;;;6.15;;
63444;SDS011;49573;47.682;9.170;2023-01-06T10:32:14;8.70;;;5.90;;
63444;SDS011;49573;47.682;9.170;2023-01-06T10:35:01;10.02;;;6.78;;
63444;SDS011;49573;47.682;9.170;2023-01-06T10:37:48;8.98;;;6.30;;
63444;SDS011;49573;47.682;9.170;2023-01-06T10:40:36;9.75;;;6.32;;
63444;SDS011;49573;47.682;9.170;2023-01-06T10:43:23;7.95;;;5.40;;
63444;SDS011;49573;47.682;9.170;2023-01-06T10:46:09;6.60;;;4.72;;
63444;SDS011;49573;47.682;9.170;2023-01-06T10:48:56;8.23;;;5.00;;
63444;SDS011;49573;47.682;9.170;2023-01-06T10:51:43;7.68;;;4.95;;
63444;SDS011;49573;47.682;9.170;2023-01-06T10:54:33;7.93;;;5.45;;
63444;SDS011;49573;47.682;9.170;2023-01-06T10:57:22;6.72;;;4.82;;
63444;SDS011;49573;47.682;9.170;2023-01-06T11:00:12;7.78;;;5.13;;
63444;SDS011;49573;47.682;9.170;2023-01-06T11:03:03;7.90;;;5.38;;
63444;SDS011;49573;47.682;9.170;2023-01-06T11:05:57;9.07;;;5.22;;
63444;SDS011;49573;47.682;9.170;2023-01-06T11:08:44;7.53;;;4.72;;
63444;SDS011;49573;47.682;9.170;2023-01-06T11:11:31;7.32;;;4.97;;
63444;SDS011;49573;47.682;9.170;2023-01-06T11:14:19;8.00;;;5.15;;
63444;SDS011;49573;47.682;9.170;2023-01-06T11:17:08;7.72;;;5.57;;
63444;SDS011;49573;47.682;9.170;2023-01-06T11:20:06;6.75;;;4.70;;
63444;SDS011;49573;47.682;9.170;2023-01-06T11:22:53;6.68;;;4.35;;
63444;SDS011;49573;47.682;9.170;2023-01-06T11:25:39;6.20;;;4.40;;
63444;SDS011;49573;47.682;9.170;2023-01-06T11:28:26;5.88;;;3.83;;
63444;SDS011;49573;47.682;9.170;2023-01-06T11:31:20;6.00;;;4.18;;
63444;SDS011;49573;47.682;9.170;2023-01-06T11:34:14;5.53;;;3.95;;
63444;SDS011;49573;47.682;9.170;2023-01-06T11:37:03;6.38;;;3.83;;
63444;SDS011;49573;47.682;9.170;2023-01-06T11:39:50;8.93;;;4.50;;
63444;SDS011;49573;47.682;9.170;2023-01-06T11:42:37;7.10;;;4.60;;
63444;SDS011;49573;47.682;9.170;2023-01-06T11:45:27;5.38;;;3.90;;
63444;SDS011;49573;47.682;9.170;2023-01-06T11:48:17;5.32;;;3.90;;
63444;SDS011;49573;47.682;9.170;2023-01-06T11:51:05;6.43;;;3.63;;
63444;SDS011;49573;47.682;9.170;2023-01-06T11:53:54;4.75;;;3.25;;
63444;SDS011;49573;47.682;9.170;2023-01-06T11:56:41;5.60;;;3.83;;
63444;SDS011;49573;47.682;9.170;2023-01-06T11:59:44;5.53;;;3.25;;
63444;SDS011;49573;47.682;9.170;2023-01-06T12:02:35;5.10;;;3.33;;
63444;SDS011;49573;47.682;9.170;2023-01-06T12:05:28;4.82;;;2.95;;
63444;SDS011;49573;47.682;9.170;2023-01-06T12:08:16;4.63;;;3.25;;
63444;SDS011;49573;47.682;9.170;2023-01-06T12:11:05;6.32;;;3.97;;
63444;SDS011;49573;47.682;9.170;2023-01-06T12:13:53;7.43;;;4.60;;
63444;SDS011;49573;47.682;9.170;2023-01-06T12:16:40;5.28;;;3.70;;
63444;SDS011;49573;47.682;9.170;2023-01-06T12:19:31;6.38;;;3.92;;
63444;SDS011;49573;47.682;9.170;2023-01-06T12:22:32;4.40;;;2.60;;
63444;SDS011;49573;47.682;9.170;2023-01-06T12:25:20;5.30;;;3.42;;
63444;SDS011;49573;47.682;9.170;2023-01-06T12:28:10;2.78;;;2.10;;
63444;SDS011;49573;47.682;9.170;2023-01-06T12:31:00;2.85;;;2.00;;
63444;SDS011;49573;47.682;9.170;2023-01-06T12:33:48;3.00;;;1.90;;
63444;SDS011;49573;47.682;9.170;2023-01-06T12:36:38;3.53;;;2.17;;
63444;SDS011;49573;47.682;9.170;2023-01-06T12:39:29;3.10;;;2.00;;
63444;SDS011;49573;47.682;9.170;2023-01-06T12:42:21;3.92;;;2.40;;
63444;SDS011;49573;47.682;9.170;2023-01-06T12:45:08;3.60;;;2.17;;
63444;SDS011;49573;47.682;9.170;2023-01-06T12:47:57;3.38;;;2.42;;
63444;SDS011;49573;47.682;9.170;2023-01-06T12:50:46;3.30;;;2.10;;
63444;SDS011;49573;47.682;9.170;2023-01-06T12:53:38;2.92;;;2.30;;
63444;SDS011;49573;47.682;9.170;2023-01-06T12:56:34;4.15;;;2.50;;
63444;SDS011;49573;47.682;9.170;2023-01-06T12:59:25;4.30;;;2.50;;
63444;SDS011;49573;47.682;9.170;2023-01-06T13:02:17;3.65;;;2.20;;
63444;SDS011;49573;47.682;9.170;2023-01-06T13:05:11;4.85;;;3.40;;
63444;SDS011;49573;47.682;9.170;2023-01-06T13:08:05;5.40;;;4.00;;
63444;SDS011;49573;47.682;9.170;2023-01-06T13:10:58;3.13;;;2.17;;
63444;SDS011;49573;47.682;9.170;2023-01-06T13:13:54;3.40;;;2.20;;
63444;SDS011;49573;47.682;9.170;2023-01-06T13:16:42;3.88;;;2.50;;
63444;SDS011;49573;47.682;9.170;2023-01-06T13:19:34;4.00;;;2.67;;
63444;SDS011;49573;47.682;9.170;2023-01-06T13:22:35;5.20;;;2.60;;
63444;SDS011;49573;47.682;9.170;2023-01-06T13:25:30;4.40;;;2.83;;
63444;SDS011;49573;47.682;9.170;2023-01-06T13:28:21;4.82;;;2.70;;
63444;SDS011;49573;47.682;9.170;2023-01-06T13:31:21;3.53;;;2.30;;
63444;SDS011;49573;47.682;9.170;2023-01-06T13:34:17;4.30;;;2.33;;
63444;SDS011;49573;47.682;9.170;2023-01-06T13:37:09;4.28;;;2.20;;
63444;SDS011;49573;47.682;9.170;2023-01-06T13:40:00;2.88;;;2.10;;
63444;SDS011;49573;47.682;9.170;2023-01-06T13:42:48;3.92;;;2.20;;
63444;SDS011;49573;47.682;9.170;2023-01-06T13:45:38;3.90;;;2.15;;
63444;SDS011;49573;47.682;9.170;2023-01-06T13:48:27;5.10;;;1.83;;
63444;SDS011;49573;47.682;9.170;2023-01-06T13:51:16;3.85;;;2.45;;
63444;SDS011;49573;47.682;9.170;2023-01-06T13:54:03;4.55;;;2.45;;
63444;SDS011;49573;47.682;9.170;2023-01-06T13:56:50;3.63;;;2.60;;
63444;SDS011;49573;47.682;9.170;2023-01-06T14:00:17;3.75;;;2.63;;
63444;SDS011;49573;47.682;9.170;2023-01-06T14:03:19;3.35;;;2.40;;
63444;SDS011;49573;47.682;9.170;2023-01-06T14:06:09;2.63;;;2.13;;
63444;SDS011;49573;47.682;9.170;2023-01-06T14:08:55;3.80;;;2.70;;
63444;SDS011;49573;47.682;9.170;2023-01-06T14:11:43;6.88;;;3.92;;
63444;SDS011;49573;47.682;9.170;2023-01-06T14:14:30;6.13;;;3.42;;
63444;SDS011;49573;47.682;9.170;2023-01-06T14:20:05;2.97;;;1.90;;
63444;SDS011;49573;47.682;9.170;2023-01-06T14:23:02;2.17;;;1.55;;
63444;SDS011;49573;47.682;9.170;2023-01-06T14:25:49;2.92;;;1.95;;
63444;SDS011;49573;47.682;9.170;2023-01-06T14:34:30;3.08;;;2.40;;
63444;SDS011;49573;47.682;9.170;2023-01-06T14:37:19;1.65;;;1.45;;
63444;SDS011;49573;47.682;9.170;2023-01-06T14:40:14;1.40;;;1.30;;
63444;SDS011;49573;47.682;9.170;2023-01-06T14:43:03;3.35;;;1.77;;
63444;SDS011;49573;47.682;9.170;2023-01-06T14:45:51;2.33;;;1.20;;
63444;SDS011;49573;47.682;9.170;2023-01-06T14:48:41;2.13;;;1.08;;
63444;SDS011;49573;47.682;9.170;2023-01-06T14:51:29;4.00;;;2.47;;
63444;SDS011;49573;47.682;9.170;2023-01-06T14:57:03;1.40;;;1.15;;
63444;SDS011;49573;47.682;9.170;2023-01-06T15:00:03;2.35;;;1.67;;
63444;SDS011;49573;47.682;9.170;2023-01-06T15:02:50;1.42;;;1.10;;
63444;SDS011;49573;47.682;9.170;2023-01-06T15:05:38;1.27;;;0.93;;
63444;SDS011;49573;47.682;9.170;2023-01-06T15:08:24;1.30;;;1.20;;
63444;SDS011;49573;47.682;9.170;2023-01-06T15:11:12;1.98;;;1.17;;
63444;SDS011;49573;47.682;9.170;2023-01-06T15:14:05;1.63;;;1.42;;
63444;SDS011;49573;47.682;9.170;2023-01-06T15:16:51;1.50;;;1.17;;
63444;SDS011;49573;47.682;9.170;2023-01-06T15:19:41;11.27;;;6.03;;
63444;SDS011;49573;47.682;9.170;2023-01-06T15:22:27;44.50;;;20.92;;
63444;SDS011;49573;47.682;9.170;2023-01-06T15:25:17;5.38;;;2.95;;
63444;SDS011;49573;47.682;9.170;2023-01-06T15:28:04;12.85;;;7.75;;
63444;SDS011;49573;47.682;9.170;2023-01-06T15:30:53;3.65;;;2.30;;
63444;SDS011;49573;47.682;9.170;2023-01-06T15:33:39;9.80;;;5.82;;
63444;SDS011;49573;47.682;9.170;2023-01-06T15:39:13;4.05;;;2.88;;
63444;SDS011;49573;47.682;9.170;2023-01-06T15:42:00;7.53;;;3.67;;
63444;SDS011;49573;47.682;9.170;2023-01-06T15:44:53;5.40;;;2.70;;
63444;SDS011;49573;47.682;9.170;2023-01-06T15:47:43;11.27;;;7.35;;
63444;SDS011;49573;47.682;9.170;2023-01-06T15:50:32;3.00;;;1.98;;
63444;SDS011;49573;47.682;9.170;2023-01-06T15:53:19;24.67;;;14.43;;
63444;SDS011;49573;47.682;9.170;2023-01-06T15:56:14;7.20;;;4.88;;
63444;SDS011;49573;47.682;9.170;2023-01-06T15:59:02;6.60;;;3.40;;
63444;SDS011;49573;47.682;9.170;2023-01-06T16:01:50;3.63;;;2.33;;
63444;SDS011;49573;47.682;9.170;2023-01-06T16:04:41;1.80;;;1.58;;
63444;SDS011;49573;47.682;9.170;2023-01-06T16:07:32;7.30;;;3.42;;
63444;SDS011;49573;47.682;9.170;2023-01-06T16:10:29;39.60;;;23.88;;
63444;SDS011;49573;47.682;9.170;2023-01-06T16:13:17;20.08;;;10.40;;
63444;SDS011;49573;47.682;9.170;2023-01-06T16:16:06;6.40;;;4.20;;
63444;SDS011;49573;47.682;9.170;2023-01-06T16:19:15;2.73;;;1.77;;
63444;SDS011;49573;47.682;9.170;2023-01-06T16:22:04;4.53;;;3.08;;
63444;SDS011;49573;47.682;9.170;2023-01-06T16:24:52;2.53;;;1.70;;
63444;SDS011;49573;47.682;9.170;2023-01-06T16:27:39;3.83;;;2.95;;
63444;SDS011;49573;47.682;9.170;2023-01-06T16:30:25;2.15;;;1.73;;
63444;SDS011;49573;47.682;9.170;2023-01-06T16:36:14;5.47;;;3.78;;
63444;SDS011;49573;47.682;9.170;2023-01-06T16:39:03;2.20;;;1.80;;
63444;SDS011;49573;47.682;9.170;2023-01-06T16:42:18;4.78;;;3.10;;
63444;SDS011;49573;47.682;9.170;2023-01-06T16:45:25;1.88;;;1.40;;
63444;SDS011;49573;47.682;9.170;2023-01-06T16:48:12;1.52;;;1.17;;
63444;SDS011;49573;47.682;9.170;2023-01-06T16:50:59;1.75;;;1.45;;
63444;SDS011;49573;47.682;9.170;2023-01-06T16:53:46;3.47;;;2.28;;
63444;SDS011;49573;47.682;9.170;2023-01-06T16:56:35;5.72;;;3.30;;
63444;SDS011;49573;47.682;9.170;2023-01-06T16:59:22;2.90;;;1.90;;
63444;SDS011;49573;47.682;9.170;2023-01-06T17:02:09;4.22;;;2.70;;
63444;SDS011;49573;47.682;9.170;2023-01-06T17:04:56;4.07;;;2.80;;
63444;SDS011;49573;47.682;9.170;2023-01-06T17:07:43;4.20;;;2.55;;
63444;SDS011;49573;47.682;9.170;2023-01-06T17:10:29;4.13;;;2.80;;
63444;SDS011;49573;47.682;9.170;2023-01-06T17:13:17;3.40;;;2.53;;
63444;SDS011;49573;47.682;9.170;2023-01-06T17:16:19;4.93;;;3.10;;
63444;SDS011;49573;47.682;9.170;2023-01-06T17:19:13;3.97;;;2.80;;